createdAt,value
2018-03-08T00:02:02.555Z,99.90
2018-03-08T00:04:30.087Z,99.90
2018-03-08T00:06:57.621Z,99.90
2018-03-08T00:09:25.161Z,99.90
2018-03-08T00:11:52.691Z,99.90
2018-03-08T00:14:20.223Z,99.90
2018-03-08T00:16:48.573Z,99.90
2018-03-08T00:19:16.089Z,99.90
2018-03-08T00:21:43.602Z,99.90
2018-03-08T00:24:11.123Z,99.90
2018-03-08T00:26:38.635Z,99.90
2018-03-08T00:29:06.142Z,99.90
2018-03-08T00:31:33.736Z,99.90
2018-03-08T00:34:01.242Z,99.90
2018-03-08T00:36:28.756Z,99.90
2018-03-08T00:38:56.319Z,99.90
2018-03-08T00:41:23.901Z,99.90
2018-03-08T00:43:52.204Z,99.90
2018-03-08T00:46:19.711Z,99.90
2018-03-08T00:48:47.238Z,99.90
2018-03-08T00:51:14.738Z,99.90
2018-03-08T00:53:42.269Z,99.90
2018-03-08T00:56:09.806Z,99.90
2018-03-08T00:58:37.317Z,99.90
2018-03-08T01:01:04.823Z,99.90
2018-03-08T01:03:32.394Z,99.90
2018-03-08T01:05:59.927Z,99.90
2018-03-08T01:08:27.456Z,99.90
2018-03-08T01:10:55.002Z,99.90
2018-03-08T01:13:22.504Z,99.90
2018-03-08T01:15:50.050Z,99.90
2018-03-08T01:18:17.620Z,99.90
2018-03-08T01:20:45.915Z,99.90
2018-03-08T01:23:13.446Z,99.90
2018-03-08T01:25:40.974Z,99.90
2018-03-08T01:28:08.500Z,99.90
2018-03-08T01:30:36.011Z,99.90
2018-03-08T01:33:03.523Z,99.90
2018-03-08T01:35:31.037Z,99.90
2018-03-08T01:37:59.346Z,99.90
2018-03-08T01:40:26.907Z,99.90
2018-03-08T01:42:54.437Z,99.90
2018-03-08T01:45:22.704Z,99.90
2018-03-08T01:47:50.237Z,99.90
2018-03-08T01:50:17.785Z,99.90
2018-03-08T01:52:45.298Z,99.90
2018-03-08T01:55:13.583Z,99.90
2018-03-08T01:57:41.861Z,99.90
2018-03-08T02:00:09.403Z,99.90
2018-03-08T02:02:36.934Z,99.90
2018-03-08T02:05:04.496Z,99.90
2018-03-08T02:07:32.024Z,99.90
2018-03-08T02:09:59.537Z,99.90
2018-03-08T02:12:27.822Z,99.90
2018-03-08T02:14:56.119Z,99.90
2018-03-08T02:17:23.650Z,99.90
2018-03-08T02:19:51.204Z,99.90
2018-03-08T02:22:18.741Z,99.90
2018-03-08T02:24:46.262Z,99.90
2018-03-08T02:27:13.779Z,99.90
2018-03-08T02:29:41.288Z,99.90
2018-03-08T02:32:08.915Z,99.90
2018-03-08T02:34:37.246Z,99.90
2018-03-08T02:37:04.793Z,99.90
2018-03-08T02:39:33.139Z,99.90
2018-03-08T02:42:01.425Z,99.90
2018-03-08T02:44:28.951Z,99.90
2018-03-08T02:46:56.476Z,99.90
2018-03-08T02:49:23.993Z,99.90
2018-03-08T02:51:52.293Z,99.90
2018-03-08T02:54:19.876Z,99.90
2018-03-08T02:56:47.395Z,99.90
2018-03-08T02:59:15.695Z,99.90
2018-03-08T03:01:43.215Z,99.90
2018-03-08T03:04:10.783Z,99.90
2018-03-08T03:06:39.075Z,99.90
2018-03-08T03:09:06.592Z,99.90
2018-03-08T03:11:34.131Z,99.90
2018-03-08T03:14:01.693Z,99.90
2018-03-08T03:16:29.215Z,99.90
2018-03-08T03:18:56.743Z,99.90
2018-03-08T03:21:24.251Z,99.90
2018-03-08T03:23:51.787Z,99.90
2018-03-08T03:26:19.336Z,99.90
2018-03-08T03:28:47.633Z,99.90
2018-03-08T03:31:15.174Z,99.90
2018-03-08T03:33:42.679Z,99.90
2018-03-08T03:36:10.192Z,99.90
2018-03-08T03:38:38.474Z,99.90
2018-03-08T03:41:06.803Z,99.90
2018-03-08T03:43:34.312Z,99.90
2018-03-08T03:46:01.859Z,99.90
2018-03-08T03:48:30.177Z,99.90
2018-03-08T03:50:57.701Z,99.90
2018-03-08T03:53:25.223Z,99.90
2018-03-08T03:55:52.731Z,99.90
2018-03-08T03:58:21.011Z,99.90
2018-03-08T04:00:49.308Z,99.90
2018-03-08T04:03:16.857Z,99.90
2018-03-08T04:05:44.395Z,99.90
2018-03-08T04:08:12.680Z,99.90
2018-03-08T04:10:40.982Z,99.90
2018-03-08T04:13:08.501Z,99.90
2018-03-08T04:15:36.040Z,99.90
2018-03-08T04:18:03.561Z,99.90
2018-03-08T04:20:31.076Z,99.90
2018-03-08T04:22:58.596Z,99.90
2018-03-08T04:25:26.124Z,99.90
2018-03-08T04:27:53.656Z,99.90
2018-03-08T04:30:21.184Z,99.90
2018-03-08T04:32:49.485Z,99.90
2018-03-08T04:35:17.081Z,99.90
2018-03-08T04:37:44.606Z,99.90
2018-03-08T04:40:12.131Z,99.90
2018-03-08T04:42:39.643Z,99.90
2018-03-08T04:45:07.207Z,99.90
2018-03-08T04:47:35.492Z,99.90
2018-03-08T04:50:03.963Z,99.90
2018-03-08T04:52:32.250Z,99.90
2018-03-08T04:54:59.765Z,99.90
2018-03-08T04:57:27.275Z,99.90
2018-03-08T04:59:54.803Z,99.90
2018-03-08T05:02:27.159Z,99.90
2018-03-08T05:04:54.680Z,99.90
2018-03-08T05:07:22.189Z,99.90
2018-03-08T05:09:49.693Z,99.90
2018-03-08T05:12:17.228Z,99.90
2018-03-08T05:14:45.515Z,99.90
2018-03-08T05:17:13.031Z,99.90
2018-03-08T05:19:40.566Z,99.90
2018-03-08T05:22:08.104Z,99.90
2018-03-08T05:24:35.683Z,99.90
2018-03-08T05:27:03.278Z,99.90
2018-03-08T05:29:30.787Z,99.90
2018-03-08T05:31:58.318Z,99.90
2018-03-08T05:34:26.599Z,99.90
2018-03-08T05:36:54.876Z,99.90
2018-03-08T05:39:23.187Z,99.90
2018-03-08T05:41:50.822Z,99.90
2018-03-08T05:44:19.118Z,99.90
2018-03-08T05:46:46.647Z,99.90
2018-03-08T05:49:14.174Z,99.90
2018-03-08T05:51:42.448Z,99.90
2018-03-08T05:54:09.957Z,99.90
2018-03-08T05:56:37.473Z,99.90
2018-03-08T05:59:05.004Z,99.90
2018-03-08T06:01:32.520Z,99.90
2018-03-08T06:04:00.792Z,99.90
2018-03-08T06:06:29.100Z,99.90
2018-03-08T06:08:56.609Z,99.90
2018-03-08T06:11:24.130Z,99.90
2018-03-08T06:13:51.688Z,99.90
2018-03-08T06:16:19.205Z,99.90
2018-03-08T06:18:46.743Z,99.90
2018-03-08T06:21:14.255Z,99.90
2018-03-08T06:23:41.793Z,99.90
2018-03-08T06:26:09.307Z,99.90
2018-03-08T06:28:36.808Z,99.90
2018-03-08T06:48:23.639Z,99.90
2018-03-08T06:50:51.988Z,99.90
2018-03-08T06:53:19.510Z,99.90
2018-03-08T06:55:47.160Z,99.90
2018-03-08T06:58:14.719Z,99.90
2018-03-08T07:00:42.283Z,99.90
2018-03-08T07:03:09.804Z,99.90
2018-03-08T07:05:38.102Z,99.90
2018-03-08T07:08:06.385Z,99.90
2018-03-08T07:10:33.961Z,99.90
2018-03-08T07:13:01.493Z,99.90
2018-03-08T07:15:29.790Z,99.90
2018-03-08T07:17:57.312Z,99.90
2018-03-08T07:20:25.067Z,99.90
2018-03-08T07:22:52.774Z,99.90
2018-03-08T07:25:20.327Z,99.90
2018-03-08T07:27:48.782Z,99.90
2018-03-08T07:30:16.336Z,99.90
2018-03-08T07:32:47.394Z,99.90
2018-03-08T07:35:14.996Z,99.90
2018-03-08T07:37:42.465Z,99.90
2018-03-08T07:40:10.035Z,99.90
2018-03-08T07:42:37.604Z,99.90
2018-03-08T07:45:05.902Z,99.90
2018-03-08T07:47:33.451Z,99.90
2018-03-08T07:50:00.995Z,99.90
2018-03-08T07:52:28.506Z,99.90
2018-03-08T07:54:56.024Z,99.90
2018-03-08T07:57:23.655Z,99.90
2018-03-08T07:59:51.177Z,99.90
2018-03-08T08:02:19.580Z,99.90
2018-03-08T08:04:58.765Z,99.90
2018-03-08T08:07:38.096Z,99.90
2018-03-08T08:10:05.670Z,99.90
2018-03-08T08:12:33.213Z,99.90
2018-03-08T08:15:00.728Z,99.90
2018-03-08T08:17:28.288Z,99.90
2018-03-08T08:19:56.810Z,99.90
2018-03-08T08:22:24.339Z,99.90
2018-03-08T08:24:51.851Z,99.90
2018-03-08T08:27:19.382Z,99.90
2018-03-08T08:29:46.895Z,99.90
2018-03-08T08:32:15.202Z,99.90
2018-03-08T08:34:42.717Z,99.90
2018-03-08T08:37:10.238Z,99.90
2018-03-08T08:39:37.784Z,99.90
2018-03-08T08:42:05.322Z,99.90
2018-03-08T08:44:32.888Z,99.90
2018-03-08T08:47:00.510Z,99.90
2018-03-08T08:49:27.982Z,99.90
2018-03-08T08:51:56.354Z,99.90
2018-03-08T08:54:23.879Z,99.90
2018-03-08T08:56:51.403Z,99.90
2018-03-08T08:59:18.919Z,99.90
2018-03-08T09:01:46.435Z,99.90
2018-03-08T09:04:13.972Z,99.90
2018-03-08T09:06:41.566Z,99.90
2018-03-08T09:09:09.217Z,99.90
2018-03-08T09:11:36.728Z,99.90
2018-03-08T09:14:04.244Z,99.90
2018-03-08T09:16:31.767Z,99.90
2018-03-08T09:19:00.051Z,99.90
2018-03-08T09:21:27.590Z,99.90
2018-03-08T09:23:55.912Z,99.90
2018-03-08T09:26:23.447Z,99.90
2018-03-08T09:28:51.004Z,99.90
2018-03-08T09:31:19.617Z,99.90
2018-03-08T09:33:47.135Z,99.90
2018-03-08T09:36:15.413Z,99.90
2018-03-08T09:38:43.709Z,99.90
2018-03-08T09:41:11.258Z,99.90
2018-03-08T09:43:38.817Z,99.90
2018-03-08T09:46:07.094Z,99.90
2018-03-08T09:48:35.467Z,99.90
2018-03-08T09:51:02.993Z,99.90
2018-03-08T09:53:30.494Z,99.90
2018-03-08T09:55:58.780Z,99.90
2018-03-08T09:58:27.048Z,99.90
2018-03-08T10:00:55.331Z,99.90
2018-03-08T10:03:23.602Z,99.90
2018-03-08T10:05:51.902Z,99.90
2018-03-08T10:08:19.977Z,99.90
2018-03-08T10:10:47.502Z,99.90
2018-03-08T10:13:15.043Z,99.90
2018-03-08T10:15:42.555Z,99.90
2018-03-08T10:18:10.074Z,99.90
2018-03-08T10:20:37.643Z,99.90
2018-03-08T10:23:05.954Z,99.90
2018-03-08T10:25:33.471Z,99.90
2018-03-08T10:28:01.040Z,99.90
2018-03-08T10:30:29.448Z,99.90
2018-03-08T10:32:56.968Z,99.90
2018-03-08T10:35:25.256Z,99.90
2018-03-08T10:37:53.553Z,99.90
2018-03-08T10:40:21.320Z,99.90
2018-03-08T10:42:48.854Z,99.90
2018-03-08T10:45:17.149Z,99.90
2018-03-08T10:47:44.664Z,99.90
2018-03-08T10:50:12.182Z,99.90
2018-03-08T10:52:39.688Z,99.90
2018-03-08T10:55:07.243Z,99.90
2018-03-08T10:57:34.769Z,99.90
2018-03-08T11:00:03.217Z,99.90
2018-03-08T11:02:45.507Z,99.90
2018-03-08T11:05:13.112Z,99.90
2018-03-08T11:07:40.654Z,99.90
2018-03-08T11:10:08.961Z,99.90
2018-03-08T11:12:36.467Z,99.90
2018-03-08T11:15:03.995Z,99.90
2018-03-08T11:17:31.507Z,99.90
2018-03-08T11:19:59.809Z,99.90
2018-03-08T11:22:27.327Z,99.90
2018-03-08T11:24:55.049Z,99.90
2018-03-08T11:27:22.562Z,99.90
2018-03-08T11:29:50.848Z,99.90
2018-03-08T11:32:18.433Z,99.90
2018-03-08T11:34:45.946Z,99.90
2018-03-08T11:37:14.258Z,99.90
2018-03-08T11:39:41.763Z,99.90
2018-03-08T11:42:09.317Z,99.90
2018-03-08T11:44:36.845Z,99.90
2018-03-08T11:47:04.372Z,99.90
2018-03-08T11:49:31.943Z,99.90
2018-03-08T11:52:00.272Z,99.90
2018-03-08T11:54:27.886Z,99.90
2018-03-08T11:56:56.175Z,99.90
2018-03-08T11:59:23.677Z,99.90
2018-03-08T12:01:51.203Z,99.90
2018-03-08T12:04:18.756Z,99.90
2018-03-08T12:06:46.288Z,99.90
2018-03-08T12:09:13.801Z,99.90
2018-03-08T12:11:41.371Z,99.90
2018-03-08T12:14:08.904Z,99.90
2018-03-08T12:16:36.455Z,99.90
2018-03-08T12:19:03.992Z,99.90
2018-03-08T12:21:31.523Z,99.90
2018-03-08T12:23:59.035Z,99.90
2018-03-08T12:26:26.602Z,99.90
2018-03-08T12:28:54.131Z,99.90
2018-03-08T12:31:23.132Z,99.90
2018-03-08T12:33:50.810Z,99.90
2018-03-08T12:36:18.392Z,99.90
2018-03-08T12:38:45.997Z,99.90
2018-03-08T12:41:14.380Z,97.00
2018-03-08T12:43:41.970Z,97.00
2018-03-08T12:46:09.497Z,87.60
2018-03-08T12:48:37.043Z,81.60
2018-03-08T12:51:04.607Z,79.40
2018-03-08T12:53:32.130Z,84.50
2018-03-08T12:55:59.658Z,76.50
2018-03-08T12:58:27.201Z,75.70
2018-03-08T13:00:54.699Z,63.20
2018-03-08T13:03:22.219Z,61.90
2018-03-08T13:05:50.548Z,69.50
2018-03-08T13:08:18.073Z,69.40
2018-03-08T13:10:45.607Z,67.60
2018-03-08T13:13:13.147Z,59.00
2018-03-08T13:15:40.761Z,59.80
2018-03-08T13:18:08.318Z,59.40
2018-03-08T13:20:35.868Z,52.60
2018-03-08T13:23:03.429Z,52.70
2018-03-08T13:25:30.975Z,48.80
2018-03-08T13:27:59.313Z,48.20
2018-03-08T13:30:26.830Z,48.20
2018-03-08T13:32:54.362Z,48.40
2018-03-08T13:35:22.698Z,47.20
2018-03-08T13:37:50.211Z,47.20
2018-03-08T13:40:17.751Z,48.90
2018-03-08T13:42:45.296Z,48.70
2018-03-08T13:45:12.824Z,47.90
2018-03-08T13:47:40.439Z,47.40
2018-03-08T13:50:08.006Z,46.40
2018-03-08T13:52:36.321Z,45.10
2018-03-08T13:55:03.814Z,45.00
2018-03-08T13:57:31.336Z,46.70
2018-03-08T13:59:58.963Z,49.50
2018-03-08T14:02:26.489Z,50.30
2018-03-08T14:04:54.016Z,49.70
2018-03-08T14:07:21.542Z,48.60
2018-03-08T14:09:49.055Z,49.10
2018-03-08T14:12:16.599Z,47.90
2018-03-08T14:14:44.831Z,46.10
2018-03-08T14:17:13.129Z,45.30
2018-03-08T14:19:41.448Z,44.60
2018-03-08T14:22:08.986Z,44.60
2018-03-08T14:24:36.510Z,44.80
2018-03-08T14:27:04.794Z,43.90
2018-03-08T14:29:33.099Z,41.60
2018-03-08T14:32:00.673Z,41.60
2018-03-08T14:34:28.184Z,40.70
2018-03-08T14:36:55.890Z,41.90
2018-03-08T14:39:23.425Z,45.20
2018-03-08T14:41:51.010Z,47.30
2018-03-08T14:44:18.561Z,50.40
2018-03-08T14:46:46.200Z,52.70
2018-03-08T14:49:13.754Z,55.30
2018-03-08T14:51:42.087Z,56.40
2018-03-08T14:54:09.959Z,56.30
2018-03-08T14:56:37.472Z,54.30
2018-03-08T14:59:05.015Z,55.30
2018-03-08T15:01:33.310Z,49.00
2018-03-08T15:04:00.842Z,49.00
2018-03-08T15:06:28.375Z,45.80
2018-03-08T15:08:55.941Z,44.20
2018-03-08T15:11:23.461Z,43.50
2018-03-08T15:13:50.971Z,39.50
2018-03-08T15:16:18.532Z,36.50
2018-03-08T15:18:46.059Z,35.60
2018-03-08T15:21:13.657Z,37.40
2018-03-08T15:23:41.175Z,37.90
2018-03-08T15:26:08.707Z,39.20
2018-03-08T15:28:36.238Z,39.70
2018-03-08T15:31:03.926Z,40.90
2018-03-08T15:33:31.603Z,42.80
2018-03-08T15:35:59.205Z,43.50
2018-03-08T15:38:29.443Z,43.90
2018-03-08T15:40:56.969Z,45.80
2018-03-08T15:43:24.697Z,47.70
2018-03-08T15:45:52.274Z,48.40
2018-03-08T15:48:20.119Z,50.10
2018-03-08T15:50:49.191Z,52.50
2018-03-08T15:53:17.461Z,53.50
2018-03-08T15:55:45.093Z,53.50
2018-03-08T15:58:12.642Z,55.00
2018-03-08T16:00:40.243Z,55.20
2018-03-08T16:03:07.884Z,57.20
2018-03-08T16:05:35.426Z,58.90
2018-03-08T16:11:08.862Z,61.70
2018-03-08T16:13:36.408Z,62.90
2018-03-08T16:16:03.923Z,65.20
2018-03-08T16:18:32.336Z,70.50
2018-03-08T16:20:59.859Z,70.40
2018-03-08T16:23:28.162Z,76.60
2018-03-08T16:25:56.672Z,76.50
2018-03-08T16:28:24.257Z,81.50
2018-03-08T16:30:51.958Z,82.40
2018-03-08T16:33:20.272Z,89.30
2018-03-08T16:35:47.965Z,89.30
2018-03-08T16:38:15.488Z,91.10
2018-03-08T16:40:43.037Z,93.20
2018-03-08T16:43:10.553Z,95.00
2018-03-08T16:45:38.243Z,95.40
2018-03-08T16:48:05.788Z,96.80
2018-03-08T16:50:34.167Z,97.50
2018-03-08T16:53:01.717Z,97.50
2018-03-08T16:55:29.281Z,98.20
2018-03-08T16:57:56.850Z,99.70
2018-03-08T17:00:25.148Z,99.90
2018-03-08T17:02:52.713Z,99.90
2018-03-08T17:05:20.238Z,99.90
2018-03-08T17:07:47.818Z,99.90
2018-03-08T17:10:18.437Z,99.90
2018-03-08T17:12:46.706Z,99.90
2018-03-08T17:15:14.236Z,99.90
2018-03-08T17:17:41.807Z,99.90
2018-03-08T17:20:09.317Z,99.90
2018-03-08T17:22:37.011Z,99.90
2018-03-08T17:25:04.533Z,99.90
2018-03-08T17:27:32.841Z,99.90
2018-03-08T17:30:00.373Z,99.90
2018-03-08T17:32:28.667Z,99.90
2018-03-08T17:34:56.207Z,99.90
2018-03-08T17:37:23.730Z,99.90
2018-03-08T17:39:51.296Z,99.90
2018-03-08T17:42:18.814Z,99.90
2018-03-08T17:44:46.313Z,99.90
2018-03-08T17:47:13.858Z,99.90
2018-03-08T17:49:41.487Z,99.90
2018-03-08T17:52:09.010Z,99.90
2018-03-08T17:54:36.630Z,99.90
2018-03-08T17:57:04.175Z,99.90
2018-03-08T17:59:35.659Z,99.90
2018-03-08T18:02:03.177Z,99.90
2018-03-08T18:04:31.053Z,99.90
2018-03-08T18:06:58.652Z,99.90
2018-03-08T18:09:26.295Z,99.90
2018-03-08T18:11:53.836Z,99.90
2018-03-08T18:14:21.373Z,99.90
2018-03-08T18:16:48.916Z,99.90
2018-03-08T18:19:18.326Z,99.90
2018-03-08T18:21:46.619Z,99.90
2018-03-08T18:24:14.155Z,99.90
2018-03-08T18:26:41.683Z,99.90
2018-03-08T18:29:09.198Z,99.90
2018-03-08T18:31:37.797Z,99.90
2018-03-08T18:34:05.371Z,99.90
2018-03-08T18:36:33.006Z,99.90
2018-03-08T18:39:00.551Z,99.90
2018-03-08T18:41:28.159Z,99.90
2018-03-08T18:43:55.824Z,99.90
2018-03-08T18:46:23.404Z,99.90
2018-03-08T18:48:51.906Z,99.90
2018-03-08T18:51:20.186Z,99.90
2018-03-08T18:53:48.564Z,99.90
2018-03-08T18:56:17.117Z,99.90
2018-03-08T18:58:44.620Z,99.90
2018-03-08T19:01:12.916Z,99.90
2018-03-08T19:03:40.439Z,99.90
2018-03-08T19:06:08.082Z,99.90
2018-03-08T19:08:41.613Z,99.90
2018-03-08T19:11:09.966Z,99.90
2018-03-08T19:13:38.865Z,99.90
2018-03-08T19:16:06.593Z,99.90
2018-03-08T19:18:34.182Z,99.90
2018-03-08T19:21:01.705Z,99.90
2018-03-08T19:23:29.262Z,99.90
2018-03-08T19:25:56.790Z,99.90
2018-03-08T19:28:24.399Z,99.90
2018-03-08T19:30:52.006Z,99.90
2018-03-08T19:33:20.348Z,99.90
2018-03-08T19:35:47.899Z,99.90
2018-03-08T19:38:15.707Z,99.90
2018-03-08T19:40:43.252Z,99.90
2018-03-08T19:43:10.785Z,99.90
2018-03-08T19:45:38.301Z,99.90
2018-03-08T19:48:05.830Z,99.90
2018-03-08T19:50:33.387Z,99.90
2018-03-08T19:53:02.190Z,99.90
2018-03-08T19:55:30.685Z,99.90
2018-03-08T19:57:58.976Z,99.90
2018-03-08T20:00:26.639Z,99.90
2018-03-08T20:02:54.594Z,99.90
2018-03-08T20:05:22.165Z,99.90
2018-03-08T20:07:50.537Z,99.90
2018-03-08T20:10:18.136Z,99.90
2018-03-08T20:12:45.717Z,99.90
2018-03-08T20:15:13.243Z,99.90
2018-03-08T20:17:40.798Z,99.90
2018-03-08T20:20:08.332Z,99.90
2018-03-08T20:22:36.673Z,99.90
2018-03-08T20:25:04.509Z,99.90
2018-03-08T20:27:32.069Z,99.90
2018-03-08T20:29:59.595Z,99.90
2018-03-08T20:32:27.993Z,99.90
2018-03-08T20:34:55.567Z,99.90
2018-03-08T20:37:23.724Z,99.90
2018-03-08T20:39:51.243Z,99.90
2018-03-08T20:42:19.149Z,99.90
2018-03-08T20:44:46.771Z,99.90
2018-03-08T20:47:14.536Z,99.90
2018-03-08T20:49:42.065Z,99.90
2018-03-08T20:52:09.605Z,99.90
2018-03-08T20:54:37.361Z,99.90
2018-03-08T20:57:04.898Z,99.90
2018-03-08T20:59:32.625Z,99.90
2018-03-08T21:02:00.151Z,99.90
2018-03-08T21:04:27.710Z,99.90
2018-03-08T21:06:55.240Z,99.90
2018-03-08T21:09:22.758Z,99.90
2018-03-08T21:11:50.257Z,99.90
2018-03-08T21:14:17.821Z,99.90
2018-03-08T21:16:45.382Z,99.90
2018-03-08T21:19:13.686Z,99.90
2018-03-08T21:21:41.183Z,99.90
2018-03-08T21:24:08.692Z,99.90
2018-03-08T21:26:36.232Z,99.90
2018-03-08T21:29:04.528Z,99.90
2018-03-08T21:31:32.873Z,99.90
2018-03-08T21:34:00.410Z,99.90
2018-03-08T21:36:27.983Z,99.90
2018-03-08T21:38:55.564Z,99.90
2018-03-08T21:41:23.124Z,99.90
2018-03-08T21:43:50.744Z,99.90
2018-03-08T21:46:18.317Z,99.90
2018-03-08T21:48:45.922Z,99.90
2018-03-08T21:51:13.482Z,99.90
2018-03-08T21:53:41.036Z,99.90
2018-03-08T21:56:08.552Z,99.90
2018-03-08T21:58:36.196Z,99.90
2018-03-08T22:01:03.746Z,99.90
2018-03-08T22:03:31.262Z,99.90
2018-03-08T22:05:58.780Z,99.90
2018-03-08T22:08:26.427Z,99.90
2018-03-08T22:10:53.991Z,99.90
2018-03-08T22:13:21.515Z,99.90
2018-03-08T22:15:49.952Z,99.90
2018-03-08T22:18:17.498Z,99.90
2018-03-08T22:20:45.091Z,99.90
2018-03-08T22:23:12.615Z,99.90
2018-03-08T22:25:40.205Z,99.90
2018-03-08T22:28:07.696Z,99.90
2018-03-08T22:30:35.252Z,99.90
2018-03-08T22:33:02.782Z,99.90
2018-03-08T22:35:30.317Z,99.90
2018-03-08T22:37:57.845Z,99.90
2018-03-08T22:40:26.200Z,99.90
2018-03-08T22:42:54.577Z,99.90
2018-03-08T22:45:22.057Z,99.90
2018-03-08T22:47:50.331Z,99.90
2018-03-08T22:50:18.611Z,99.90
2018-03-08T22:52:46.918Z,99.90
2018-03-08T22:55:14.529Z,99.90
2018-03-08T22:57:42.054Z,99.90
2018-03-08T23:00:09.647Z,99.90
2018-03-08T23:02:37.167Z,99.90
2018-03-08T23:05:04.702Z,99.90
2018-03-08T23:07:32.235Z,99.90
2018-03-08T23:10:00.656Z,99.90
2018-03-08T23:12:28.237Z,99.90
2018-03-08T23:14:55.762Z,99.90
2018-03-08T23:17:23.293Z,99.90
2018-03-08T23:19:50.818Z,99.90
2018-03-08T23:22:18.391Z,99.90
2018-03-08T23:24:45.980Z,99.90
2018-03-08T23:27:13.501Z,99.90
2018-03-08T23:29:41.004Z,99.90
2018-03-08T23:32:09.467Z,99.90
2018-03-08T23:34:36.995Z,99.90
2018-03-08T23:37:04.546Z,99.90
2018-03-08T23:39:32.110Z,99.90
2018-03-08T23:41:59.642Z,99.90
2018-03-08T23:44:28.099Z,99.90
2018-03-08T23:46:55.648Z,99.90
2018-03-08T23:49:23.172Z,99.90
2018-03-08T23:51:50.752Z,99.90
2018-03-08T23:54:18.324Z,99.90
2018-03-08T23:56:45.858Z,99.90
2018-03-08T23:59:13.371Z,99.90
